sensor_id;sensor_type;location;lat;lon;timestamp;temperature;humidity
52415;DHT22;38340;52.964;6.086;2022-11-18T00:02:07;7.50;99.90
52415;DHT22;38340;52.964;6.086;2022-11-18T00:04:33;7.50;99.90
52415;DHT22;38340;52.964;6.086;2022-11-18T00:06:58;7.40;99.90
52415;DHT22;38340;52.964;6.086;2022-11-18T00:09:24;7.40;99.90
52415;DHT22;38340;52.964;6.086;2022-11-18T00:11:50;7.40;99.90
52415;DHT22;38340;52.964;6.086;2022-11-18T00:14:34;7.30;99.90
52415;DHT22;38340;52.964;6.086;2022-11-18T00:17:02;7.30;99.90
52415;DHT22;38340;52.964;6.086;2022-11-18T00:19:34;7.30;99.90
52415;DHT22;38340;52.964;6.086;2022-11-18T00:22:00;7.30;99.90
52415;DHT22;38340;52.964;6.086;2022-11-18T00:24:26;7.30;99.90
52415;DHT22;38340;52.964;6.086;2022-11-18T00:26:53;7.30;99.90
52415;DHT22;38340;52.964;6.086;2022-11-18T00:29:20;7.20;99.90
52415;DHT22;38340;52.964;6.086;2022-11-18T00:31:46;7.20;99.90
52415;DHT22;38340;52.964;6.086;2022-11-18T00:34:13;7.20;99.90
52415;DHT22;38340;52.964;6.086;2022-11-18T00:36:40;7.20;99.90
52415;DHT22;38340;52.964;6.086;2022-11-18T00:39:06;7.20;99.90
52415;DHT22;38340;52.964;6.086;2022-11-18T00:41:32;7.10;99.90
52415;DHT22;38340;52.964;6.086;2022-11-18T00:44:16;7.10;99.90
52415;DHT22;38340;52.964;6.086;2022-11-18T00:46:42;7.10;99.90
52415;DHT22;38340;52.964;6.086;2022-11-18T00:49:08;7.10;99.90
52415;DHT22;38340;52.964;6.086;2022-11-18T00:51:34;7.10;99.90
52415;DHT22;38340;52.964;6.086;2022-11-18T00:54:00;7.00;99.90
52415;DHT22;38340;52.964;6.086;2022-11-18T00:56:26;7.00;99.90
52415;DHT22;38340;52.964;6.086;2022-11-18T00:58:52;7.00;99.90
52415;DHT22;38340;52.964;6.086;2022-11-18T01:01:18;6.90;99.90
52415;DHT22;38340;52.964;6.086;2022-11-18T01:03:43;6.90;99.90
52415;DHT22;38340;52.964;6.086;2022-11-18T01:06:09;6.80;99.90
52415;DHT22;38340;52.964;6.086;2022-11-18T01:08:35;6.90;99.90
52415;DHT22;38340;52.964;6.086;2022-11-18T01:11:00;6.80;99.90
52415;DHT22;38340;52.964;6.086;2022-11-18T01:13:47;6.70;99.90
52415;DHT22;38340;52.964;6.086;2022-11-18T01:16:18;6.70;99.90
52415;DHT22;38340;52.964;6.086;2022-11-18T01:18:44;6.70;99.90
52415;DHT22;38340;52.964;6.086;2022-11-18T01:21:10;6.70;99.90
52415;DHT22;38340;52.964;6.086;2022-11-18T01:23:35;6.70;99.90
52415;DHT22;38340;52.964;6.086;2022-11-18T01:26:04;6.70;99.90
52415;DHT22;38340;52.964;6.086;2022-11-18T01:28:30;6.70;99.90
52415;DHT22;38340;52.964;6.086;2022-11-18T01:31:06;6.70;99.90
52415;DHT22;38340;52.964;6.086;2022-11-18T01:33:32;6.70;99.90
52415;DHT22;38340;52.964;6.086;2022-11-18T01:35:58;6.70;99.90
52415;DHT22;38340;52.964;6.086;2022-11-18T01:38:24;6.80;99.90
52415;DHT22;38340;52.964;6.086;2022-11-18T01:40:50;6.80;99.90
52415;DHT22;38340;52.964;6.086;2022-11-18T01:43:18;6.90;99.90
52415;DHT22;38340;52.964;6.086;2022-11-18T01:45:46;6.90;99.90
52415;DHT22;38340;52.964;6.086;2022-11-18T01:48:19;7.00;99.90
52415;DHT22;38340;52.964;6.086;2022-11-18T01:50:53;7.00;99.90
52415;DHT22;38340;52.964;6.086;2022-11-18T01:53:25;7.00;99.90
52415;DHT22;38340;52.964;6.086;2022-11-18T01:55:53;7.10;99.90
52415;DHT22;38340;52.964;6.086;2022-11-18T01:58:24;7.10;99.90
52415;DHT22;38340;52.964;6.086;2022-11-18T02:00:52;7.20;99.90
52415;DHT22;38340;52.964;6.086;2022-11-18T02:03:17;7.20;99.90
52415;DHT22;38340;52.964;6.086;2022-11-18T02:05:46;7.20;99.90
52415;DHT22;38340;52.964;6.086;2022-11-18T02:08:14;7.20;99.90
52415;DHT22;38340;52.964;6.086;2022-11-18T02:10:40;7.20;99.90
52415;DHT22;38340;52.964;6.086;2022-11-18T02:13:06;7.30;99.90
52415;DHT22;38340;52.964;6.086;2022-11-18T02:16:05;7.30;99.90
52415;DHT22;38340;52.964;6.086;2022-11-18T02:18:57;7.30;99.90
52415;DHT22;38340;52.964;6.086;2022-11-18T02:21:53;7.30;99.90
52415;DHT22;38340;52.964;6.086;2022-11-18T02:24:45;7.40;99.90
52415;DHT22;38340;52.964;6.086;2022-11-18T02:30:15;7.40;99.90
52415;DHT22;38340;52.964;6.086;2022-11-18T02:35:26;7.50;99.90
52415;DHT22;38340;52.964;6.086;2022-11-18T02:37:57;7.50;99.90
52415;DHT22;38340;52.964;6.086;2022-11-18T02:43:01;7.50;99.90
52415;DHT22;38340;52.964;6.086;2022-11-18T02:45:29;7.50;99.90
52415;DHT22;38340;52.964;6.086;2022-11-18T02:48:00;7.50;99.90
52415;DHT22;38340;52.964;6.086;2022-11-18T02:50:28;7.50;99.90
52415;DHT22;38340;52.964;6.086;2022-11-18T02:52:58;7.60;99.90
52415;DHT22;38340;52.964;6.086;2022-11-18T02:55:27;7.50;99.90
52415;DHT22;38340;52.964;6.086;2022-11-18T02:57:54;7.60;99.90
52415;DHT22;38340;52.964;6.086;2022-11-18T03:00:20;7.60;99.90
52415;DHT22;38340;52.964;6.086;2022-11-18T03:02:48;7.60;99.90
52415;DHT22;38340;52.964;6.086;2022-11-18T03:05:40;7.60;99.90
52415;DHT22;38340;52.964;6.086;2022-11-18T03:08:14;7.60;99.90
52415;DHT22;38340;52.964;6.086;2022-11-18T03:10:49;7.60;99.90
52415;DHT22;38340;52.964;6.086;2022-11-18T03:13:25;7.60;99.90
52415;DHT22;38340;52.964;6.086;2022-11-18T03:16:10;7.60;99.90
52415;DHT22;38340;52.964;6.086;2022-11-18T03:18:44;7.60;99.90
52415;DHT22;38340;52.964;6.086;2022-11-18T03:21:25;7.60;99.90
52415;DHT22;38340;52.964;6.086;2022-11-18T03:24:17;7.60;99.90
52415;DHT22;38340;52.964;6.086;2022-11-18T03:26:51;7.60;99.90
52415;DHT22;38340;52.964;6.086;2022-11-18T03:29:24;7.60;99.90
52415;DHT22;38340;52.964;6.086;2022-11-18T03:31:58;7.60;99.90
52415;DHT22;38340;52.964;6.086;2022-11-18T03:34:49;7.60;99.90
52415;DHT22;38340;52.964;6.086;2022-11-18T03:37:18;7.60;99.90
52415;DHT22;38340;52.964;6.086;2022-11-18T03:39:51;7.60;99.90
52415;DHT22;38340;52.964;6.086;2022-11-18T03:44:50;7.60;99.90
52415;DHT22;38340;52.964;6.086;2022-11-18T03:47:25;7.60;99.90
52415;DHT22;38340;52.964;6.086;2022-11-18T03:49:58;7.60;99.90
52415;DHT22;38340;52.964;6.086;2022-11-18T03:52:28;7.60;99.90
52415;DHT22;38340;52.964;6.086;2022-11-18T03:54:57;7.60;99.90
52415;DHT22;38340;52.964;6.086;2022-11-18T04:00:13;7.60;99.90
52415;DHT22;38340;52.964;6.086;2022-11-18T04:02:39;7.60;99.90
52415;DHT22;38340;52.964;6.086;2022-11-18T04:05:08;7.60;99.90
52415;DHT22;38340;52.964;6.086;2022-11-18T04:07:56;7.60;99.90
52415;DHT22;38340;52.964;6.086;2022-11-18T04:10:33;7.60;99.90
52415;DHT22;38340;52.964;6.086;2022-11-18T04:13:20;7.60;99.90
52415;DHT22;38340;52.964;6.086;2022-11-18T04:15:47;7.60;99.90
52415;DHT22;38340;52.964;6.086;2022-11-18T04:18:13;7.60;99.90
52415;DHT22;38340;52.964;6.086;2022-11-18T04:20:39;7.60;99.90
52415;DHT22;38340;52.964;6.086;2022-11-18T04:23:06;7.60;99.90
52415;DHT22;38340;52.964;6.086;2022-11-18T04:25:32;7.60;99.90
52415;DHT22;38340;52.964;6.086;2022-11-18T04:27:57;7.50;99.90
52415;DHT22;38340;52.964;6.086;2022-11-18T04:30:23;7.50;99.90
52415;DHT22;38340;52.964;6.086;2022-11-18T04:32:49;7.50;99.90
52415;DHT22;38340;52.964;6.086;2022-11-18T04:35:15;7.60;99.90
52415;DHT22;38340;52.964;6.086;2022-11-18T04:37:41;7.50;99.90
52415;DHT22;38340;52.964;6.086;2022-11-18T04:40:07;7.50;99.90
52415;DHT22;38340;52.964;6.086;2022-11-18T04:42:33;7.60;99.90
52415;DHT22;38340;52.964;6.086;2022-11-18T04:44:58;7.60;99.90
52415;DHT22;38340;52.964;6.086;2022-11-18T04:47:24;7.60;99.90
52415;DHT22;38340;52.964;6.086;2022-11-18T04:49:50;7.60;99.90
52415;DHT22;38340;52.964;6.086;2022-11-18T04:52:16;7.60;99.90
52415;DHT22;38340;52.964;6.086;2022-11-18T04:54:41;7.60;99.90
52415;DHT22;38340;52.964;6.086;2022-11-18T04:57:07;7.60;99.90
52415;DHT22;38340;52.964;6.086;2022-11-18T04:59:33;7.60;99.90
52415;DHT22;38340;52.964;6.086;2022-11-18T05:01:59;7.60;99.90
52415;DHT22;38340;52.964;6.086;2022-11-18T05:04:30;7.60;99.90
52415;DHT22;38340;52.964;6.086;2022-11-18T05:06:58;7.60;99.90
52415;DHT22;38340;52.964;6.086;2022-11-18T05:09:24;7.60;99.90
52415;DHT22;38340;52.964;6.086;2022-11-18T05:11:50;7.60;99.90
52415;DHT22;38340;52.964;6.086;2022-11-18T05:14:34;7.60;99.90
52415;DHT22;38340;52.964;6.086;2022-11-18T05:17:02;7.60;99.90
52415;DHT22;38340;52.964;6.086;2022-11-18T05:19:27;7.60;99.90
52415;DHT22;38340;52.964;6.086;2022-11-18T05:21:53;7.60;99.90
52415;DHT22;38340;52.964;6.086;2022-11-18T05:24:19;7.60;99.90
52415;DHT22;38340;52.964;6.086;2022-11-18T05:26:45;7.60;99.90
52415;DHT22;38340;52.964;6.086;2022-11-18T05:29:11;7.50;99.90
52415;DHT22;38340;52.964;6.086;2022-11-18T05:31:37;7.60;99.90
52415;DHT22;38340;52.964;6.086;2022-11-18T05:34:03;7.60;99.90
52415;DHT22;38340;52.964;6.086;2022-11-18T05:36:29;7.60;99.90
52415;DHT22;38340;52.964;6.086;2022-11-18T05:38:57;7.50;99.90
52415;DHT22;38340;52.964;6.086;2022-11-18T05:41:23;7.50;99.90
52415;DHT22;38340;52.964;6.086;2022-11-18T05:44:07;7.50;99.90
52415;DHT22;38340;52.964;6.086;2022-11-18T05:46:33;7.50;99.90
52415;DHT22;38340;52.964;6.086;2022-11-18T05:48:59;7.50;99.90
52415;DHT22;38340;52.964;6.086;2022-11-18T05:51:25;7.50;99.90
52415;DHT22;38340;52.964;6.086;2022-11-18T05:53:51;7.50;99.90
52415;DHT22;38340;52.964;6.086;2022-11-18T05:56:56;7.50;99.90
52415;DHT22;38340;52.964;6.086;2022-11-18T05:59:15;7.50;99.90
52415;DHT22;38340;52.964;6.086;2022-11-18T06:01:44;7.50;99.90
52415;DHT22;38340;52.964;6.086;2022-11-18T06:07:04;7.50;99.90
52415;DHT22;38340;52.964;6.086;2022-11-18T06:09:35;7.50;99.90
52415;DHT22;38340;52.964;6.086;2022-11-18T06:12:03;7.50;99.90
52415;DHT22;38340;52.964;6.086;2022-11-18T06:14:41;7.50;99.90
52415;DHT22;38340;52.964;6.086;2022-11-18T06:17:13;7.40;99.90
52415;DHT22;38340;52.964;6.086;2022-11-18T06:19:40;7.40;99.90
52415;DHT22;38340;52.964;6.086;2022-11-18T06:22:06;7.40;99.90
52415;DHT22;38340;52.964;6.086;2022-11-18T06:24:34;7.40;99.90
52415;DHT22;38340;52.964;6.086;2022-11-18T06:27:00;7.40;99.90
52415;DHT22;38340;52.964;6.086;2022-11-18T06:29:26;7.40;99.90
52415;DHT22;38340;52.964;6.086;2022-11-18T06:31:52;7.40;99.90
52415;DHT22;38340;52.964;6.086;2022-11-18T06:34:17;7.30;99.90
52415;DHT22;38340;52.964;6.086;2022-11-18T06:36:43;7.30;99.90
52415;DHT22;38340;52.964;6.086;2022-11-18T06:39:09;7.30;99.90
52415;DHT22;38340;52.964;6.086;2022-11-18T06:41:34;7.30;99.90
52415;DHT22;38340;52.964;6.086;2022-11-18T06:44:00;7.40;99.90
52415;DHT22;38340;52.964;6.086;2022-11-18T06:46:26;7.40;99.90
52415;DHT22;38340;52.964;6.086;2022-11-18T06:49:10;7.30;99.90
52415;DHT22;38340;52.964;6.086;2022-11-18T06:51:36;7.30;99.90
52415;DHT22;38340;52.964;6.086;2022-11-18T06:54:03;7.30;99.90
52415;DHT22;38340;52.964;6.086;2022-11-18T06:56:29;7.30;99.90
52415;DHT22;38340;52.964;6.086;2022-11-18T06:58:56;7.30;99.90
52415;DHT22;38340;52.964;6.086;2022-11-18T07:01:24;7.30;99.90
52415;DHT22;38340;52.964;6.086;2022-11-18T07:03:51;7.30;99.90
52415;DHT22;38340;52.964;6.086;2022-11-18T07:06:20;7.30;99.90
52415;DHT22;38340;52.964;6.086;2022-11-18T07:08:46;7.30;99.90
52415;DHT22;38340;52.964;6.086;2022-11-18T07:11:16;7.30;99.90
52415;DHT22;38340;52.964;6.086;2022-11-18T07:13:42;7.30;99.90
52415;DHT22;38340;52.964;6.086;2022-11-18T07:16:08;7.30;99.90
52415;DHT22;38340;52.964;6.086;2022-11-18T07:18:36;7.30;99.90
52415;DHT22;38340;52.964;6.086;2022-11-18T07:21:03;7.30;99.90
52415;DHT22;38340;52.964;6.086;2022-11-18T07:23:30;7.30;99.90
52415;DHT22;38340;52.964;6.086;2022-11-18T07:25:57;7.30;99.90
52415;DHT22;38340;52.964;6.086;2022-11-18T07:28:23;7.30;99.90
52415;DHT22;38340;52.964;6.086;2022-11-18T07:30:48;7.20;99.90
52415;DHT22;38340;52.964;6.086;2022-11-18T07:33:14;7.20;99.90
52415;DHT22;38340;52.964;6.086;2022-11-18T07:35:40;7.20;99.90
52415;DHT22;38340;52.964;6.086;2022-11-18T07:38:05;7.20;99.90
52415;DHT22;38340;52.964;6.086;2022-11-18T07:40:31;7.20;99.90
52415;DHT22;38340;52.964;6.086;2022-11-18T07:42:57;7.20;99.90
52415;DHT22;38340;52.964;6.086;2022-11-18T07:45:22;7.20;99.90
52415;DHT22;38340;52.964;6.086;2022-11-18T07:47:48;7.20;99.90
52415;DHT22;38340;52.964;6.086;2022-11-18T07:50:16;7.20;99.90
52415;DHT22;38340;52.964;6.086;2022-11-18T07:52:41;7.20;99.90
52415;DHT22;38340;52.964;6.086;2022-11-18T07:55:07;7.20;99.90
52415;DHT22;38340;52.964;6.086;2022-11-18T07:57:33;7.20;99.90
52415;DHT22;38340;52.964;6.086;2022-11-18T07:59:58;7.20;99.90
52415;DHT22;38340;52.964;6.086;2022-11-18T08:02:24;7.20;99.90
52415;DHT22;38340;52.964;6.086;2022-11-18T08:04:50;7.20;99.90
52415;DHT22;38340;52.964;6.086;2022-11-18T08:07:16;7.20;99.90
52415;DHT22;38340;52.964;6.086;2022-11-18T08:09:41;7.20;99.90
52415;DHT22;38340;52.964;6.086;2022-11-18T08:12:07;7.20;99.90
52415;DHT22;38340;52.964;6.086;2022-11-18T08:14:33;7.30;99.90
52415;DHT22;38340;52.964;6.086;2022-11-18T08:16:58;7.20;99.90
52415;DHT22;38340;52.964;6.086;2022-11-18T08:19:24;7.30;99.90
52415;DHT22;38340;52.964;6.086;2022-11-18T08:21:50;7.20;99.90
52415;DHT22;38340;52.964;6.086;2022-11-18T08:24:15;7.20;99.90
52415;DHT22;38340;52.964;6.086;2022-11-18T08:26:41;7.20;99.90
52415;DHT22;38340;52.964;6.086;2022-11-18T08:29:07;7.20;99.90
52415;DHT22;38340;52.964;6.086;2022-11-18T08:31:33;7.30;99.90
52415;DHT22;38340;52.964;6.086;2022-11-18T08:33:59;7.30;99.90
52415;DHT22;38340;52.964;6.086;2022-11-18T08:36:28;7.30;99.90
52415;DHT22;38340;52.964;6.086;2022-11-18T08:38:56;7.30;99.90
52415;DHT22;38340;52.964;6.086;2022-11-18T08:41:34;7.30;99.90
52415;DHT22;38340;52.964;6.086;2022-11-18T08:44:00;7.30;99.90
52415;DHT22;38340;52.964;6.086;2022-11-18T08:46:27;7.30;99.90
52415;DHT22;38340;52.964;6.086;2022-11-18T08:48:53;7.30;99.90
52415;DHT22;38340;52.964;6.086;2022-11-18T08:51:18;7.30;99.90
52415;DHT22;38340;52.964;6.086;2022-11-18T08:53:44;7.30;99.90
52415;DHT22;38340;52.964;6.086;2022-11-18T08:56:15;7.30;99.90
52415;DHT22;38340;52.964;6.086;2022-11-18T08:58:41;7.30;99.90
52415;DHT22;38340;52.964;6.086;2022-11-18T09:01:07;7.30;99.90
52415;DHT22;38340;52.964;6.086;2022-11-18T09:03:33;7.30;99.90
52415;DHT22;38340;52.964;6.086;2022-11-18T09:08:31;7.30;99.90
52415;DHT22;38340;52.964;6.086;2022-11-18T09:10:57;7.30;99.90
52415;DHT22;38340;52.964;6.086;2022-11-18T09:13:23;7.20;99.90
52415;DHT22;38340;52.964;6.086;2022-11-18T09:15:49;7.30;99.90
52415;DHT22;38340;52.964;6.086;2022-11-18T09:18:14;7.20;99.90
52415;DHT22;38340;52.964;6.086;2022-11-18T09:20:40;7.20;99.90
52415;DHT22;38340;52.964;6.086;2022-11-18T09:23:05;7.20;99.90
52415;DHT22;38340;52.964;6.086;2022-11-18T09:25:32;7.20;99.90
52415;DHT22;38340;52.964;6.086;2022-11-18T09:27:58;7.30;99.90
52415;DHT22;38340;52.964;6.086;2022-11-18T09:30:23;7.30;99.90
52415;DHT22;38340;52.964;6.086;2022-11-18T09:32:49;7.30;99.90
52415;DHT22;38340;52.964;6.086;2022-11-18T09:35:15;7.30;99.90
52415;DHT22;38340;52.964;6.086;2022-11-18T09:37:40;7.30;99.90
52415;DHT22;38340;52.964;6.086;2022-11-18T09:40:13;7.20;99.90
52415;DHT22;38340;52.964;6.086;2022-11-18T09:43:24;7.20;99.90
52415;DHT22;38340;52.964;6.086;2022-11-18T09:45:45;7.20;99.90
52415;DHT22;38340;52.964;6.086;2022-11-18T09:48:21;7.20;99.90
52415;DHT22;38340;52.964;6.086;2022-11-18T09:51:09;7.20;99.90
52415;DHT22;38340;52.964;6.086;2022-11-18T09:53:38;7.20;99.90
52415;DHT22;38340;52.964;6.086;2022-11-18T09:56:13;7.20;99.90
52415;DHT22;38340;52.964;6.086;2022-11-18T09:58:39;7.20;99.90
52415;DHT22;38340;52.964;6.086;2022-11-18T10:01:15;7.20;99.90
52415;DHT22;38340;52.964;6.086;2022-11-18T10:03:42;7.20;99.90
52415;DHT22;38340;52.964;6.086;2022-11-18T10:08:45;7.20;99.90
52415;DHT22;38340;52.964;6.086;2022-11-18T10:11:19;7.30;99.90
52415;DHT22;38340;52.964;6.086;2022-11-18T10:20:13;7.30;99.90
52415;DHT22;38340;52.964;6.086;2022-11-18T10:23:04;7.30;99.90
52415;DHT22;38340;52.964;6.086;2022-11-18T10:25:28;7.30;99.90
52415;DHT22;38340;52.964;6.086;2022-11-18T10:27:54;7.30;99.90
52415;DHT22;38340;52.964;6.086;2022-11-18T10:30:23;7.30;99.90
52415;DHT22;38340;52.964;6.086;2022-11-18T10:33:02;7.30;99.90
52415;DHT22;38340;52.964;6.086;2022-11-18T10:40:55;7.30;99.90
52415;DHT22;38340;52.964;6.086;2022-11-18T10:43:41;7.30;99.90
52415;DHT22;38340;52.964;6.086;2022-11-18T10:46:16;7.40;99.90
52415;DHT22;38340;52.964;6.086;2022-11-18T10:48:43;7.40;99.90
52415;DHT22;38340;52.964;6.086;2022-11-18T10:51:23;7.40;99.90
52415;DHT22;38340;52.964;6.086;2022-11-18T10:53:50;7.40;99.90
52415;DHT22;38340;52.964;6.086;2022-11-18T10:56:16;7.40;99.90
52415;DHT22;38340;52.964;6.086;2022-11-18T10:58:44;7.40;99.90
52415;DHT22;38340;52.964;6.086;2022-11-18T11:01:21;7.30;99.90
52415;DHT22;38340;52.964;6.086;2022-11-18T11:03:58;7.30;99.90
52415;DHT22;38340;52.964;6.086;2022-11-18T11:06:35;7.30;99.90
52415;DHT22;38340;52.964;6.086;2022-11-18T11:09:05;7.30;99.90
52415;DHT22;38340;52.964;6.086;2022-11-18T11:11:40;7.30;99.90
52415;DHT22;38340;52.964;6.086;2022-11-18T11:17:13;7.40;99.90
52415;DHT22;38340;52.964;6.086;2022-11-18T11:19:47;7.40;99.90
52415;DHT22;38340;52.964;6.086;2022-11-18T11:22:15;7.50;99.90
52415;DHT22;38340;52.964;6.086;2022-11-18T11:24:41;7.50;99.90
52415;DHT22;38340;52.964;6.086;2022-11-18T11:35:31;7.20;99.90
52415;DHT22;38340;52.964;6.086;2022-11-18T11:37:59;7.10;99.90
52415;DHT22;38340;52.964;6.086;2022-11-18T11:51:49;7.10;99.90
52415;DHT22;38340;52.964;6.086;2022-11-18T12:02:39;7.30;99.90
52415;DHT22;38340;52.964;6.086;2022-11-18T12:08:00;7.30;99.90
52415;DHT22;38340;52.964;6.086;2022-11-18T12:10:43;7.30;99.90
52415;DHT22;38340;52.964;6.086;2022-11-18T12:26:50;7.10;99.90
52415;DHT22;38340;52.964;6.086;2022-11-18T12:31:45;7.20;99.90
52415;DHT22;38340;52.964;6.086;2022-11-18T12:36:52;7.10;99.90
52415;DHT22;38340;52.964;6.086;2022-11-18T12:41:56;7.00;99.90
52415;DHT22;38340;52.964;6.086;2022-11-18T12:44:42;7.00;99.90
52415;DHT22;38340;52.964;6.086;2022-11-18T12:47:15;7.00;99.90
52415;DHT22;38340;52.964;6.086;2022-11-18T12:50:10;6.90;99.90
52415;DHT22;38340;52.964;6.086;2022-11-18T12:55:10;6.90;99.90
52415;DHT22;38340;52.964;6.086;2022-11-18T12:57:41;6.90;99.90
52415;DHT22;38340;52.964;6.086;2022-11-18T13:00:28;6.90;99.90
52415;DHT22;38340;52.964;6.086;2022-11-18T13:02:56;6.90;99.90
52415;DHT22;38340;52.964;6.086;2022-11-18T13:05:33;6.80;99.90
52415;DHT22;38340;52.964;6.086;2022-11-18T13:08:05;6.80;99.90
52415;DHT22;38340;52.964;6.086;2022-11-18T13:10:56;6.80;99.90
52415;DHT22;38340;52.964;6.086;2022-11-18T13:13:43;6.80;99.90
52415;DHT22;38340;52.964;6.086;2022-11-18T13:16:27;6.70;99.90
52415;DHT22;38340;52.964;6.086;2022-11-18T13:19:21;6.70;99.90
52415;DHT22;38340;52.964;6.086;2022-11-18T13:21:55;6.70;99.90
52415;DHT22;38340;52.964;6.086;2022-11-18T13:24:51;6.70;99.90
52415;DHT22;38340;52.964;6.086;2022-11-18T13:30:05;6.60;99.90
52415;DHT22;38340;52.964;6.086;2022-11-18T13:32:34;6.50;99.90
52415;DHT22;38340;52.964;6.086;2022-11-18T13:37:53;6.50;99.90
52415;DHT22;38340;52.964;6.086;2022-11-18T13:40:22;6.40;99.90
52415;DHT22;38340;52.964;6.086;2022-11-18T13:42:48;6.40;99.90
52415;DHT22;38340;52.964;6.086;2022-11-18T13:45:14;6.40;99.90
52415;DHT22;38340;52.964;6.086;2022-11-18T13:48:04;6.40;99.90
52415;DHT22;38340;52.964;6.086;2022-11-18T13:50:40;6.40;99.90
52415;DHT22;38340;52.964;6.086;2022-11-18T13:53:33;6.30;99.90
52415;DHT22;38340;52.964;6.086;2022-11-18T13:56:07;6.40;99.90
52415;DHT22;38340;52.964;6.086;2022-11-18T13:58:44;6.40;99.90
52415;DHT22;38340;52.964;6.086;2022-11-18T14:01:42;6.30;99.90
52415;DHT22;38340;52.964;6.086;2022-11-18T14:04:28;6.40;99.90
52415;DHT22;38340;52.964;6.086;2022-11-18T14:07:20;6.30;99.90
52415;DHT22;38340;52.964;6.086;2022-11-18T14:10:08;6.30;99.90
52415;DHT22;38340;52.964;6.086;2022-11-18T14:12:35;6.20;99.90
52415;DHT22;38340;52.964;6.086;2022-11-18T14:18:00;6.10;99.90
52415;DHT22;38340;52.964;6.086;2022-11-18T14:20:28;6.00;99.90
52415;DHT22;38340;52.964;6.086;2022-11-18T14:22:57;6.10;99.90
52415;DHT22;38340;52.964;6.086;2022-11-18T14:25:32;6.00;99.90
52415;DHT22;38340;52.964;6.086;2022-11-18T14:31:03;5.90;99.90
52415;DHT22;38340;52.964;6.086;2022-11-18T14:33:34;5.90;99.90
52415;DHT22;38340;52.964;6.086;2022-11-18T14:41:07;5.80;99.90
52415;DHT22;38340;52.964;6.086;2022-11-18T14:43:33;5.70;99.90
52415;DHT22;38340;52.964;6.086;2022-11-18T14:46:05;5.60;99.90
52415;DHT22;38340;52.964;6.086;2022-11-18T14:48:32;5.60;99.90
52415;DHT22;38340;52.964;6.086;2022-11-18T14:50:58;5.60;99.90
52415;DHT22;38340;52.964;6.086;2022-11-18T14:53:24;5.50;99.90
52415;DHT22;38340;52.964;6.086;2022-11-18T14:55:51;5.40;99.90
52415;DHT22;38340;52.964;6.086;2022-11-18T14:58:18;5.40;99.90
52415;DHT22;38340;52.964;6.086;2022-11-18T15:00:46;5.30;99.90
52415;DHT22;38340;52.964;6.086;2022-11-18T15:03:12;5.30;99.90
52415;DHT22;38340;52.964;6.086;2022-11-18T15:05:38;5.30;99.90
52415;DHT22;38340;52.964;6.086;2022-11-18T15:08:05;5.20;99.90
52415;DHT22;38340;52.964;6.086;2022-11-18T15:10:31;5.20;99.90
52415;DHT22;38340;52.964;6.086;2022-11-18T15:12:57;5.20;99.90
52415;DHT22;38340;52.964;6.086;2022-11-18T15:15:23;5.20;99.90
52415;DHT22;38340;52.964;6.086;2022-11-18T15:17:48;5.20;99.90
52415;DHT22;38340;52.964;6.086;2022-11-18T15:20:17;5.20;99.90
52415;DHT22;38340;52.964;6.086;2022-11-18T15:22:43;5.10;99.90
52415;DHT22;38340;52.964;6.086;2022-11-18T15:25:09;5.10;99.90
52415;DHT22;38340;52.964;6.086;2022-11-18T15:27:35;5.10;99.90
52415;DHT22;38340;52.964;6.086;2022-11-18T15:30:02;5.10;99.90
52415;DHT22;38340;52.964;6.086;2022-11-18T15:32:28;5.10;99.90
52415;DHT22;38340;52.964;6.086;2022-11-18T15:34:53;5.10;99.90
52415;DHT22;38340;52.964;6.086;2022-11-18T15:37:19;5.10;99.90
52415;DHT22;38340;52.964;6.086;2022-11-18T15:39:45;5.10;99.90
52415;DHT22;38340;52.964;6.086;2022-11-18T15:42:17;5.10;99.90
52415;DHT22;38340;52.964;6.086;2022-11-18T15:44:44;5.10;99.90
52415;DHT22;38340;52.964;6.086;2022-11-18T15:47:10;5.10;99.90
52415;DHT22;38340;52.964;6.086;2022-11-18T15:49:35;5.10;99.90
52415;DHT22;38340;52.964;6.086;2022-11-18T15:52:01;5.10;99.90
52415;DHT22;38340;52.964;6.086;2022-11-18T15:54:27;5.00;99.90
52415;DHT22;38340;52.964;6.086;2022-11-18T15:56:53;5.00;99.90
52415;DHT22;38340;52.964;6.086;2022-11-18T15:59:18;4.90;99.90
52415;DHT22;38340;52.964;6.086;2022-11-18T16:01:46;5.00;99.90
52415;DHT22;38340;52.964;6.086;2022-11-18T16:04:15;4.90;99.90
52415;DHT22;38340;52.964;6.086;2022-11-18T16:06:41;4.80;99.90
52415;DHT22;38340;52.964;6.086;2022-11-18T16:09:11;4.80;99.90
52415;DHT22;38340;52.964;6.086;2022-11-18T16:11:37;4.70;99.90
52415;DHT22;38340;52.964;6.086;2022-11-18T16:14:22;4.70;99.90
52415;DHT22;38340;52.964;6.086;2022-11-18T16:16:50;4.70;99.90
52415;DHT22;38340;52.964;6.086;2022-11-18T16:19:18;4.60;99.90
52415;DHT22;38340;52.964;6.086;2022-11-18T16:21:47;4.60;99.90
52415;DHT22;38340;52.964;6.086;2022-11-18T16:24:19;4.50;99.90
52415;DHT22;38340;52.964;6.086;2022-11-18T16:26:46;4.50;99.90
52415;DHT22;38340;52.964;6.086;2022-11-18T16:29:12;4.40;99.90
52415;DHT22;38340;52.964;6.086;2022-11-18T16:31:40;4.30;99.90
52415;DHT22;38340;52.964;6.086;2022-11-18T16:34:19;4.30;99.90
52415;DHT22;38340;52.964;6.086;2022-11-18T16:36:47;4.30;99.90
52415;DHT22;38340;52.964;6.086;2022-11-18T16:39:15;4.40;99.90
52415;DHT22;38340;52.964;6.086;2022-11-18T16:41:42;4.40;99.90
52415;DHT22;38340;52.964;6.086;2022-11-18T16:44:13;4.40;99.90
52415;DHT22;38340;52.964;6.086;2022-11-18T16:46:41;4.50;99.90
52415;DHT22;38340;52.964;6.086;2022-11-18T16:49:13;4.50;99.90
52415;DHT22;38340;52.964;6.086;2022-11-18T16:51:41;4.50;99.90
52415;DHT22;38340;52.964;6.086;2022-11-18T16:54:12;4.50;99.90
52415;DHT22;38340;52.964;6.086;2022-11-18T16:56:40;4.50;99.90
52415;DHT22;38340;52.964;6.086;2022-11-18T16:59:11;4.50;99.90
52415;DHT22;38340;52.964;6.086;2022-11-18T17:01:37;4.50;99.90
52415;DHT22;38340;52.964;6.086;2022-11-18T17:04:03;4.40;99.90
52415;DHT22;38340;52.964;6.086;2022-11-18T17:06:29;4.40;99.90
52415;DHT22;38340;52.964;6.086;2022-11-18T17:08:57;4.30;99.90
52415;DHT22;38340;52.964;6.086;2022-11-18T17:11:23;4.30;99.90
52415;DHT22;38340;52.964;6.086;2022-11-18T17:13:49;4.30;99.90
52415;DHT22;38340;52.964;6.086;2022-11-18T17:16:17;4.30;99.90
52415;DHT22;38340;52.964;6.086;2022-11-18T17:18:44;4.20;99.90
52415;DHT22;38340;52.964;6.086;2022-11-18T17:21:15;4.10;99.90
52415;DHT22;38340;52.964;6.086;2022-11-18T17:23:46;4.10;99.90
52415;DHT22;38340;52.964;6.086;2022-11-18T17:26:14;4.10;99.90
52415;DHT22;38340;52.964;6.086;2022-11-18T17:28:41;4.00;99.90
52415;DHT22;38340;52.964;6.086;2022-11-18T17:31:09;4.00;99.90
52415;DHT22;38340;52.964;6.086;2022-11-18T17:33:36;3.90;99.90
52415;DHT22;38340;52.964;6.086;2022-11-18T17:36:04;3.90;99.90
52415;DHT22;38340;52.964;6.086;2022-11-18T17:38:32;3.90;99.90
52415;DHT22;38340;52.964;6.086;2022-11-18T17:40:58;3.90;99.90
52415;DHT22;38340;52.964;6.086;2022-11-18T17:43:25;3.80;99.90
52415;DHT22;38340;52.964;6.086;2022-11-18T17:45:58;3.80;99.90
52415;DHT22;38340;52.964;6.086;2022-11-18T17:48:28;3.80;99.90
52415;DHT22;38340;52.964;6.086;2022-11-18T17:51:04;3.80;99.90